createdAt,value
2023-04-22T00:00:38.395Z,5.78
2023-04-22T00:03:17.516Z,5.76
2023-04-22T00:05:45.858Z,5.73
2023-04-22T00:08:14.276Z,5.70
2023-04-22T00:10:42.280Z,5.67
2023-04-22T00:13:10.327Z,5.62
2023-04-22T00:15:38.345Z,5.57
2023-04-22T00:18:07.575Z,5.52
2023-04-22T00:20:36.590Z,5.46
2023-04-22T00:23:04.665Z,5.42
2023-04-22T00:25:33.762Z,5.38
2023-04-22T00:28:01.629Z,5.32
2023-04-22T00:30:29.588Z,5.27
2023-04-22T00:32:57.792Z,5.24
2023-04-22T00:35:25.977Z,5.19
2023-04-22T00:37:54.209Z,5.14
2023-04-22T00:40:22.380Z,5.09
2023-04-22T00:42:51.228Z,5.04
2023-04-22T00:45:21.142Z,5.01
2023-04-22T00:47:49.579Z,4.98
2023-04-22T00:50:17.742Z,4.95
2023-04-22T00:52:46.107Z,4.92
2023-04-22T00:55:14.115Z,4.89
2023-04-22T00:57:42.869Z,4.87
2023-04-22T01:00:11.793Z,4.86
2023-04-22T01:02:40.393Z,4.84
2023-04-22T01:05:12.098Z,4.81
2023-04-22T01:07:40.276Z,4.77
2023-04-22T01:10:08.996Z,4.74
2023-04-22T01:12:37.252Z,4.70
2023-04-22T01:15:06.796Z,4.65
2023-04-22T01:17:35.617Z,4.60
2023-04-22T01:20:05.612Z,4.56
2023-04-22T01:22:41.431Z,4.50
2023-04-22T01:25:11.483Z,4.46
2023-04-22T01:27:40.311Z,4.42
2023-04-22T01:30:10.052Z,4.39
2023-04-22T01:32:41.267Z,4.37
2023-04-22T01:35:11.301Z,4.34
2023-04-22T01:37:40.334Z,4.32
2023-04-22T01:40:12.496Z,4.29
2023-04-22T01:42:40.617Z,4.27
2023-04-22T01:45:09.501Z,4.26
2023-04-22T01:47:37.562Z,4.23
2023-04-22T01:50:06.345Z,4.21
2023-04-22T01:52:34.403Z,4.18
2023-04-22T01:55:03.264Z,4.16
2023-04-22T01:57:31.403Z,4.14
2023-04-22T01:59:59.598Z,4.11
2023-04-22T02:02:27.787Z,4.08
2023-04-22T02:04:56.351Z,4.05
2023-04-22T02:07:24.519Z,3.99
2023-04-22T02:09:52.675Z,3.94
2023-04-22T02:12:20.899Z,3.91
2023-04-22T02:14:49.045Z,3.90
2023-04-22T02:17:18.042Z,3.89
2023-04-22T02:19:47.430Z,3.88
2023-04-22T02:22:17.713Z,3.86
2023-04-22T02:24:45.905Z,3.84
2023-04-22T02:27:13.995Z,3.82
2023-04-22T02:29:42.691Z,3.79
2023-04-22T02:32:11.043Z,3.76
2023-04-22T02:34:39.020Z,3.74
2023-04-22T02:37:07.090Z,3.71
2023-04-22T02:39:35.405Z,3.68
2023-04-22T02:42:03.944Z,3.65
2023-04-22T02:44:31.913Z,3.61
2023-04-22T02:47:00.298Z,3.59
2023-04-22T02:49:28.574Z,3.56
2023-04-22T02:51:57.904Z,3.53
2023-04-22T02:54:25.949Z,3.50
2023-04-22T02:56:54.212Z,3.48
2023-04-22T03:07:01.973Z,3.45
2023-04-22T03:09:30.781Z,3.41
2023-04-22T03:11:58.802Z,3.39
2023-04-22T03:14:26.838Z,3.37
2023-04-22T03:16:55.933Z,3.37
2023-04-22T03:19:24.365Z,3.35
2023-04-22T03:21:52.433Z,3.33
2023-04-22T03:24:22.354Z,3.32
2023-04-22T03:26:52.374Z,3.30
2023-04-22T03:29:20.444Z,3.28
2023-04-22T03:31:49.306Z,3.25
2023-04-22T03:34:17.853Z,3.25
2023-04-22T03:36:46.612Z,3.25
2023-04-22T03:39:14.781Z,3.25
2023-04-22T03:41:43.618Z,3.27
2023-04-22T03:44:12.040Z,3.28
2023-04-22T03:46:40.108Z,3.30
2023-04-22T03:49:15.342Z,3.34
2023-04-22T03:51:44.068Z,3.35
2023-04-22T03:54:14.766Z,3.38
2023-04-22T03:56:47.965Z,3.41
2023-04-22T03:59:17.615Z,3.43
2023-04-22T04:01:47.639Z,3.45
2023-04-22T04:04:17.404Z,3.46
2023-04-22T04:06:51.834Z,3.48
2023-04-22T04:09:21.469Z,3.51
2023-04-22T04:11:49.492Z,3.53
2023-04-22T04:14:18.997Z,3.55
2023-04-22T04:16:48.827Z,3.57
2023-04-22T04:19:38.194Z,3.60
2023-04-22T04:22:07.185Z,3.63
2023-04-22T04:24:42.396Z,3.68
2023-04-22T04:27:16.421Z,3.74
2023-04-22T04:29:49.712Z,3.82
2023-04-22T04:32:24.408Z,3.90
2023-04-22T04:34:53.237Z,3.97
2023-04-22T04:37:24.284Z,4.04
2023-04-22T04:40:01.860Z,4.14
2023-04-22T04:42:40.918Z,4.33
2023-04-22T04:45:12.078Z,4.51
2023-04-22T04:47:41.212Z,4.61
2023-04-22T04:50:20.462Z,4.68
2023-04-22T04:52:52.727Z,4.77
2023-04-22T04:55:24.839Z,5.28
2023-04-22T04:57:53.106Z,6.18
2023-04-22T05:00:21.557Z,7.18
2023-04-22T05:02:50.648Z,8.07
2023-04-22T05:05:19.453Z,9.20
2023-04-22T05:07:48.020Z,9.57
2023-04-22T05:10:16.372Z,9.13
2023-04-22T05:12:47.478Z,8.65
2023-04-22T05:15:20.334Z,8.24
2023-04-22T05:17:48.599Z,7.96
2023-04-22T05:20:17.028Z,7.75
2023-04-22T05:22:46.194Z,7.63
2023-04-22T05:25:17.033Z,7.57
2023-04-22T05:27:53.282Z,7.54
2023-04-22T05:30:21.591Z,7.54
2023-04-22T05:32:49.676Z,7.56
2023-04-22T05:35:19.738Z,7.59
2023-04-22T05:37:47.746Z,7.65
2023-04-22T05:40:16.293Z,7.71
2023-04-22T05:42:44.670Z,7.78
2023-04-22T05:45:13.094Z,7.86
2023-04-22T05:47:41.565Z,7.95
2023-04-22T05:50:09.808Z,8.07
2023-04-22T05:52:48.525Z,8.19
2023-04-22T05:55:18.030Z,8.30
2023-04-22T05:57:46.410Z,8.44
2023-04-22T06:00:35.987Z,8.55
2023-04-22T06:03:27.333Z,8.66
2023-04-22T06:05:55.750Z,8.76
2023-04-22T06:08:24.161Z,8.88
2023-04-22T06:10:52.266Z,8.98
2023-04-22T06:13:21.550Z,9.10
2023-04-22T06:15:50.210Z,9.23
2023-04-22T06:18:18.499Z,9.36
2023-04-22T06:20:47.080Z,9.45
2023-04-22T06:23:15.148Z,9.53
2023-04-22T06:25:43.893Z,9.61
2023-04-22T06:28:12.127Z,9.76
2023-04-22T06:30:40.599Z,9.83
2023-04-22T06:33:10.244Z,9.91
2023-04-22T06:35:38.304Z,10.01
2023-04-22T06:38:06.470Z,10.14
2023-04-22T06:40:41.684Z,10.28
2023-04-22T06:43:30.326Z,10.46
2023-04-22T06:46:18.897Z,10.64
2023-04-22T06:48:53.437Z,10.78
2023-04-22T06:51:44.415Z,10.97
2023-04-22T06:54:13.105Z,11.13
2023-04-22T06:56:41.087Z,11.29
2023-04-22T06:59:09.156Z,11.38
2023-04-22T07:01:37.431Z,11.45
2023-04-22T07:04:05.515Z,11.51
2023-04-22T07:06:33.577Z,11.59
2023-04-22T07:09:01.937Z,11.69
2023-04-22T07:11:31.697Z,11.81
2023-04-22T07:14:04.245Z,11.94
2023-04-22T07:16:32.290Z,12.04
2023-04-22T07:19:00.800Z,12.10
2023-04-22T07:21:28.861Z,12.17
2023-04-22T07:23:56.920Z,12.29
2023-04-22T07:26:25.393Z,12.42
2023-04-22T07:28:53.361Z,12.53
2023-04-22T07:31:21.520Z,12.64
2023-04-22T07:33:49.809Z,12.71
2023-04-22T07:36:18.002Z,12.81
2023-04-22T07:38:46.393Z,12.96
2023-04-22T07:41:15.062Z,13.10
2023-04-22T07:43:44.244Z,13.21
2023-04-22T07:46:12.452Z,13.29
2023-04-22T07:48:42.836Z,13.39
2023-04-22T07:51:17.016Z,13.51
2023-04-22T07:53:48.731Z,13.63
2023-04-22T07:56:16.824Z,13.72
2023-04-22T07:58:44.813Z,13.81
2023-04-22T08:01:12.804Z,13.90
2023-04-22T08:03:41.207Z,14.01
2023-04-22T08:06:09.783Z,14.17
2023-04-22T08:08:37.871Z,14.24
2023-04-22T08:11:05.732Z,14.28
2023-04-22T08:13:33.738Z,14.37
2023-04-22T08:16:04.894Z,14.46
2023-04-22T08:18:33.034Z,14.51
2023-04-22T08:21:02.758Z,14.54
2023-04-22T08:23:30.815Z,14.63
2023-04-22T08:25:58.900Z,14.70
2023-04-22T08:28:27.246Z,14.78
2023-04-22T08:30:55.348Z,14.85
2023-04-22T08:33:24.772Z,14.89
2023-04-22T08:35:54.835Z,14.93
2023-04-22T08:38:24.371Z,15.01
2023-04-22T08:40:57.440Z,15.07
2023-04-22T08:43:27.077Z,15.12
2023-04-22T08:45:56.057Z,15.18
2023-04-22T08:48:24.204Z,15.20
2023-04-22T08:50:53.912Z,15.23
2023-04-22T08:53:24.406Z,15.30
2023-04-22T08:55:57.509Z,15.39
2023-04-22T08:58:25.761Z,15.47
2023-04-22T09:00:54.997Z,15.52
2023-04-22T09:03:24.002Z,15.55
2023-04-22T09:05:54.329Z,15.56
2023-04-22T09:08:22.495Z,15.60
2023-04-22T09:10:50.787Z,15.66
2023-04-22T09:13:21.308Z,15.74
2023-04-22T09:15:49.480Z,15.81
2023-04-22T09:18:19.319Z,15.87
2023-04-22T09:20:49.104Z,15.97
2023-04-22T09:23:17.237Z,16.05
2023-04-22T09:25:46.454Z,16.08
2023-04-22T09:28:19.058Z,16.14
2023-04-22T09:30:47.759Z,16.20
2023-04-22T09:33:17.802Z,16.29
2023-04-22T09:35:45.934Z,16.35
2023-04-22T09:38:13.900Z,16.36
